createdAt,value
2022-12-03T00:01:30.523Z,3.49
2022-12-03T00:03:58.979Z,3.46
2022-12-03T00:06:32.909Z,3.43
2022-12-03T00:09:03.073Z,3.42
2022-12-03T00:11:32.270Z,3.41
2022-12-03T00:14:00.654Z,3.42
2022-12-03T00:16:30.481Z,3.41
2022-12-03T00:18:58.899Z,3.42
2022-12-03T00:21:27.293Z,3.42
2022-12-03T00:23:55.620Z,3.39
2022-12-03T00:26:24.036Z,3.37
2022-12-03T00:28:52.499Z,3.35
2022-12-03T00:31:23.293Z,3.35
2022-12-03T00:33:53.553Z,3.34
2022-12-03T00:36:21.931Z,3.35
2022-12-03T00:38:50.327Z,3.33
2022-12-03T00:41:18.702Z,3.29
2022-12-03T00:43:46.964Z,3.26
2022-12-03T00:46:19.855Z,3.26
2022-12-03T00:48:49.855Z,3.26
2022-12-03T00:51:19.636Z,3.27
2022-12-03T00:53:47.987Z,3.27
2022-12-03T00:56:16.427Z,3.27
2022-12-03T00:58:44.789Z,3.27
2022-12-03T01:01:13.354Z,3.27
2022-12-03T01:03:42.107Z,3.26
2022-12-03T01:06:10.525Z,3.24
2022-12-03T01:08:40.985Z,3.22
2022-12-03T01:11:29.590Z,3.25
2022-12-03T01:13:58.127Z,3.27
2022-12-03T01:16:26.543Z,3.26
2022-12-03T01:18:55.087Z,3.23
2022-12-03T01:21:23.648Z,3.23
2022-12-03T01:23:53.499Z,3.24
2022-12-03T01:26:21.911Z,3.25
2022-12-03T01:28:50.651Z,3.24
2022-12-03T01:31:36.590Z,3.23
2022-12-03T01:34:05.555Z,3.20
2022-12-03T01:36:35.200Z,3.22
2022-12-03T01:39:06.305Z,3.19
2022-12-03T01:41:36.791Z,3.18
2022-12-03T01:44:16.109Z,3.21
2022-12-03T01:46:45.045Z,3.20
2022-12-03T01:49:18.188Z,3.19
2022-12-03T01:51:47.094Z,3.18
2022-12-03T01:54:19.718Z,3.17
2022-12-03T01:56:48.836Z,3.17
2022-12-03T01:59:19.144Z,3.17
2022-12-03T02:01:47.778Z,3.15
2022-12-03T02:04:18.266Z,3.12
2022-12-03T02:06:47.140Z,3.14
2022-12-03T02:09:16.874Z,3.17
2022-12-03T02:11:48.131Z,3.18
2022-12-03T02:14:20.331Z,3.20
2022-12-03T02:16:49.180Z,3.22
2022-12-03T02:19:25.372Z,3.24
2022-12-03T02:22:03.360Z,3.24
2022-12-03T02:24:42.021Z,3.26
2022-12-03T02:27:11.780Z,3.23
2022-12-03T02:29:40.352Z,3.22
2022-12-03T02:32:08.860Z,3.22
2022-12-03T02:34:39.660Z,3.22
2022-12-03T02:37:12.944Z,3.21
2022-12-03T02:39:44.817Z,3.21
2022-12-03T02:42:32.570Z,3.22
2022-12-03T02:45:05.587Z,3.24
2022-12-03T02:47:36.704Z,3.24
2022-12-03T02:50:06.427Z,3.26
2022-12-03T02:52:34.888Z,3.25
2022-12-03T02:55:04.948Z,3.26
2022-12-03T02:57:35.988Z,3.21
2022-12-03T03:00:05.959Z,3.19
2022-12-03T03:02:36.565Z,3.20
2022-12-03T03:05:07.899Z,3.23
2022-12-03T03:07:37.021Z,3.24
2022-12-03T03:10:08.186Z,3.25
2022-12-03T03:12:39.533Z,3.26
2022-12-03T03:15:18.287Z,3.27
2022-12-03T03:17:46.738Z,3.27
2022-12-03T03:20:15.694Z,3.28
2022-12-03T03:22:44.895Z,3.30
2022-12-03T03:25:16.706Z,3.30
2022-12-03T03:27:47.168Z,3.30
2022-12-03T03:30:16.787Z,3.32
2022-12-03T03:32:45.284Z,3.34
2022-12-03T03:35:14.777Z,3.34
2022-12-03T03:37:46.191Z,3.33
2022-12-03T03:40:14.624Z,3.33
2022-12-03T03:42:43.356Z,3.34
2022-12-03T03:45:13.732Z,3.34
2022-12-03T03:47:43.508Z,3.34
2022-12-03T03:50:14.986Z,3.34
2022-12-03T03:52:44.821Z,3.34
2022-12-03T03:55:14.162Z,3.35
2022-12-03T03:57:42.546Z,3.37
2022-12-03T04:00:13.550Z,3.38
2022-12-03T04:02:42.007Z,3.38
2022-12-03T04:05:16.422Z,3.39
2022-12-03T04:07:44.861Z,3.39
2022-12-03T04:10:32.171Z,3.40
2022-12-03T04:13:01.146Z,3.41
2022-12-03T04:15:30.999Z,3.41
2022-12-03T04:18:16.939Z,3.41
2022-12-03T04:20:47.488Z,3.42
2022-12-03T04:23:14.793Z,3.41
2022-12-03T04:26:00.572Z,3.41
2022-12-03T04:28:46.473Z,3.40
2022-12-03T04:31:33.818Z,3.39
2022-12-03T04:34:19.795Z,3.40
2022-12-03T04:36:48.662Z,3.40
2022-12-03T04:39:16.970Z,3.39
2022-12-03T04:41:45.446Z,3.39
2022-12-03T04:44:31.658Z,3.37
2022-12-03T04:47:01.576Z,3.39
2022-12-03T04:49:29.881Z,3.38
2022-12-03T04:51:58.599Z,3.39
2022-12-03T04:54:27.494Z,3.39
2022-12-03T04:56:57.114Z,3.40
2022-12-03T04:59:25.483Z,3.41
2022-12-03T05:01:54.127Z,3.41
2022-12-03T05:04:24.195Z,3.40
2022-12-03T05:06:52.793Z,3.41
2022-12-03T05:09:21.242Z,3.42
2022-12-03T05:11:49.566Z,3.42
2022-12-03T05:14:18.127Z,3.41
2022-12-03T05:16:46.514Z,3.42
2022-12-03T05:19:14.866Z,3.42
2022-12-03T05:21:43.679Z,3.43
2022-12-03T05:24:12.048Z,3.44
2022-12-03T05:26:40.423Z,3.43
2022-12-03T05:29:08.880Z,3.43
2022-12-03T05:31:37.191Z,3.42
2022-12-03T05:34:05.975Z,3.43
2022-12-03T05:36:34.499Z,3.40
2022-12-03T05:39:04.232Z,3.38
2022-12-03T05:41:50.118Z,3.35
2022-12-03T05:44:20.727Z,3.35
2022-12-03T05:46:49.242Z,3.34
2022-12-03T05:49:17.835Z,3.31
2022-12-03T05:51:46.223Z,3.30
2022-12-03T05:54:16.035Z,3.30
2022-12-03T05:56:44.367Z,3.31
2022-12-03T05:59:12.734Z,3.33
2022-12-03T06:01:41.055Z,3.33
2022-12-03T06:04:09.427Z,3.33
2022-12-03T06:06:37.816Z,3.33
2022-12-03T06:09:06.860Z,3.35
2022-12-03T06:11:37.259Z,3.37
2022-12-03T06:14:05.943Z,3.39
2022-12-03T06:16:34.379Z,3.39
2022-12-03T06:19:02.779Z,3.37
2022-12-03T06:21:31.149Z,3.33
2022-12-03T06:24:00.002Z,3.33
2022-12-03T06:26:30.051Z,3.34
2022-12-03T06:28:59.907Z,3.35
2022-12-03T06:31:28.268Z,3.36
2022-12-03T06:33:56.663Z,3.35
2022-12-03T06:36:26.155Z,3.33
2022-12-03T06:38:54.510Z,3.37
2022-12-03T06:41:22.880Z,3.36
2022-12-03T06:43:51.284Z,3.39
2022-12-03T06:46:21.097Z,3.40
2022-12-03T06:48:49.554Z,3.35
2022-12-03T06:51:17.918Z,3.34
2022-12-03T06:53:46.180Z,3.30
2022-12-03T06:56:15.483Z,3.29
2022-12-03T06:58:46.279Z,3.28
2022-12-03T07:01:14.891Z,3.28
2022-12-03T07:03:44.529Z,3.29
2022-12-03T07:06:12.975Z,3.32
2022-12-03T07:08:41.561Z,3.33
2022-12-03T07:11:30.079Z,3.34
2022-12-03T07:14:04.719Z,3.35
2022-12-03T07:16:34.401Z,3.32
2022-12-03T07:19:04.689Z,3.31
2022-12-03T07:21:33.517Z,3.31
2022-12-03T07:24:02.322Z,3.30
2022-12-03T07:26:30.708Z,3.28
2022-12-03T07:28:59.394Z,3.26
2022-12-03T07:31:27.908Z,3.26
2022-12-03T07:33:56.391Z,3.24
2022-12-03T07:36:26.334Z,3.24
2022-12-03T07:38:54.707Z,3.25
2022-12-03T07:41:23.135Z,3.24
2022-12-03T07:43:51.719Z,3.23
2022-12-03T07:46:20.252Z,3.24
2022-12-03T07:48:48.619Z,3.24
2022-12-03T07:51:16.933Z,3.26
2022-12-03T07:53:46.639Z,3.29
2022-12-03T07:56:14.983Z,3.32
2022-12-03T07:58:43.316Z,3.32
2022-12-03T08:01:11.722Z,3.30
2022-12-03T08:03:40.140Z,3.34
2022-12-03T08:06:08.799Z,3.36
2022-12-03T08:08:37.162Z,3.38
2022-12-03T08:11:07.251Z,3.37
2022-12-03T08:13:36.107Z,3.35
2022-12-03T08:16:16.877Z,3.39
2022-12-03T08:18:46.554Z,3.42
2022-12-03T08:21:17.065Z,3.42
2022-12-03T08:23:45.876Z,3.42
2022-12-03T08:26:23.383Z,3.40
2022-12-03T08:28:52.035Z,3.41
2022-12-03T08:31:27.989Z,3.43
2022-12-03T08:34:07.689Z,3.43
2022-12-03T08:36:36.535Z,3.45
2022-12-03T08:39:29.217Z,3.48
2022-12-03T08:42:27.671Z,3.48
2022-12-03T08:44:56.510Z,3.50
2022-12-03T08:47:25.812Z,3.50
2022-12-03T08:49:58.084Z,3.52
2022-12-03T08:52:32.572Z,3.53
2022-12-03T08:55:03.887Z,3.54
2022-12-03T08:57:35.881Z,3.53
2022-12-03T09:00:19.591Z,3.53
2022-12-03T09:02:52.310Z,3.55
2022-12-03T09:05:23.335Z,3.57
2022-12-03T09:07:51.786Z,3.59
2022-12-03T09:10:20.292Z,3.60
2022-12-03T09:12:50.411Z,3.62
2022-12-03T09:15:18.893Z,3.63
2022-12-03T09:17:47.236Z,3.63
2022-12-03T09:20:16.158Z,3.62
2022-12-03T09:22:44.908Z,3.61
2022-12-03T09:25:13.271Z,3.61
2022-12-03T09:27:42.563Z,3.64
2022-12-03T09:30:13.126Z,3.64
2022-12-03T09:32:43.570Z,3.64
2022-12-03T09:35:12.461Z,3.67
2022-12-03T09:37:40.965Z,3.74
2022-12-03T09:40:10.973Z,3.78
2022-12-03T09:42:39.750Z,3.81
2022-12-03T09:45:12.349Z,3.85
2022-12-03T09:47:45.868Z,3.89
2022-12-03T09:50:15.734Z,3.94
2022-12-03T09:52:45.165Z,3.99
2022-12-03T09:55:18.963Z,4.03
2022-12-03T09:57:47.476Z,4.06
2022-12-03T10:00:18.816Z,4.05
2022-12-03T10:02:49.768Z,4.10
2022-12-03T10:05:20.456Z,4.13
2022-12-03T10:07:49.659Z,4.17
2022-12-03T10:10:21.248Z,4.20
2022-12-03T10:12:50.070Z,4.22
2022-12-03T10:15:22.942Z,4.25
2022-12-03T10:17:55.222Z,4.28
2022-12-03T10:20:25.726Z,4.28
2022-12-03T10:22:54.077Z,4.29
2022-12-03T10:25:24.017Z,4.31
2022-12-03T10:28:00.453Z,4.33
2022-12-03T10:30:29.750Z,4.36
2022-12-03T10:33:02.645Z,4.36
2022-12-03T10:35:39.775Z,4.38
2022-12-03T10:38:19.547Z,4.41
2022-12-03T10:40:48.544Z,4.43
2022-12-03T10:43:22.725Z,4.42
2022-12-03T10:45:52.390Z,4.42
2022-12-03T10:48:25.562Z,4.42
2022-12-03T10:50:55.478Z,4.41
2022-12-03T10:53:27.375Z,4.42
2022-12-03T10:55:59.595Z,4.46
2022-12-03T10:58:30.142Z,4.47
2022-12-03T11:01:00.299Z,4.45
2022-12-03T11:03:34.766Z,4.46
2022-12-03T11:06:04.087Z,4.47
2022-12-03T11:08:35.611Z,4.49
2022-12-03T11:11:07.457Z,4.47
2022-12-03T11:13:52.424Z,4.47
2022-12-03T11:17:11.962Z,4.41
2022-12-03T11:19:47.866Z,4.40
2022-12-03T11:22:27.264Z,4.39
2022-12-03T11:25:32.916Z,4.38
2022-12-03T11:28:46.955Z,4.33
2022-12-03T11:31:38.131Z,4.27
2022-12-03T11:34:49.280Z,4.26
2022-12-03T11:37:26.503Z,4.22
2022-12-03T11:40:26.641Z,4.18
2022-12-03T11:42:55.325Z,4.14
2022-12-03T11:45:35.833Z,4.17
2022-12-03T11:48:14.030Z,4.19
2022-12-03T11:50:44.353Z,4.21
2022-12-03T11:53:22.760Z,4.22
2022-12-03T11:56:06.081Z,4.26
2022-12-03T11:58:35.300Z,4.30
2022-12-03T12:01:05.802Z,4.30
2022-12-03T12:03:36.576Z,4.30
2022-12-03T12:06:07.600Z,4.31
2022-12-03T12:08:40.254Z,4.31
2022-12-03T12:11:18.917Z,4.29
2022-12-03T12:13:51.908Z,4.30
2022-12-03T12:16:53.772Z,4.28
2022-12-03T12:19:32.854Z,4.29
2022-12-03T12:22:21.474Z,4.30
2022-12-03T12:24:52.622Z,4.27
2022-12-03T12:27:22.722Z,4.27
2022-12-03T12:29:55.763Z,4.27
2022-12-03T12:32:27.700Z,4.26
2022-12-03T12:35:00.445Z,4.25
2022-12-03T12:37:35.214Z,4.22
2022-12-03T12:40:12.737Z,4.25
2022-12-03T12:42:49.480Z,4.27
2022-12-03T12:45:20.309Z,4.27
2022-12-03T12:47:51.280Z,4.23
2022-12-03T12:50:20.647Z,4.21
2022-12-03T12:52:52.442Z,4.21
2022-12-03T12:55:24.127Z,4.18
2022-12-03T12:57:52.868Z,4.17
2022-12-03T13:00:23.772Z,4.16
2022-12-03T13:02:55.725Z,4.14
2022-12-03T13:05:27.818Z,4.12
2022-12-03T13:08:10.093Z,4.11
2022-12-03T13:10:46.619Z,4.11
2022-12-03T13:13:24.969Z,4.10
2022-12-03T13:16:02.101Z,4.11
2022-12-03T13:18:48.003Z,4.11
2022-12-03T13:21:33.282Z,4.11
2022-12-03T13:24:02.284Z,4.12
2022-12-03T13:26:39.714Z,4.11
2022-12-03T13:29:14.512Z,4.12
2022-12-03T13:31:49.881Z,4.14
2022-12-03T13:34:23.107Z,4.14
2022-12-03T13:36:57.638Z,4.16
2022-12-03T13:39:30.722Z,4.17
2022-12-03T13:42:31.673Z,4.19
2022-12-03T13:45:02.397Z,4.19
2022-12-03T13:47:30.800Z,4.18
2022-12-03T13:50:03.667Z,4.18
2022-12-03T13:52:36.511Z,4.15
2022-12-03T13:55:07.763Z,4.16
2022-12-03T13:57:37.888Z,4.16
2022-12-03T14:00:07.875Z,4.13
2022-12-03T14:02:36.833Z,4.10
2022-12-03T14:05:09.110Z,4.07
2022-12-03T14:07:38.386Z,4.10
2022-12-03T14:10:08.627Z,4.09
2022-12-03T14:12:39.865Z,4.09
2022-12-03T14:15:10.727Z,4.06
2022-12-03T14:17:39.187Z,4.04
2022-12-03T14:20:09.111Z,4.01
2022-12-03T14:22:38.149Z,4.00
2022-12-03T14:25:07.923Z,3.99
2022-12-03T14:27:39.425Z,3.95
2022-12-03T14:30:09.023Z,3.93
2022-12-03T14:32:37.581Z,3.94
2022-12-03T14:35:09.869Z,3.94
2022-12-03T14:37:38.891Z,3.91
2022-12-03T14:40:09.161Z,3.91
2022-12-03T14:42:39.234Z,3.88
2022-12-03T14:45:08.599Z,3.84
2022-12-03T14:47:36.995Z,3.84
2022-12-03T14:50:06.264Z,3.79
2022-12-03T14:52:34.628Z,3.77
2022-12-03T14:55:03.144Z,3.77
2022-12-03T14:57:31.539Z,3.77
2022-12-03T15:00:01.500Z,3.75
2022-12-03T15:02:30.334Z,3.75
2022-12-03T15:04:58.855Z,3.73
2022-12-03T15:07:27.167Z,3.68
2022-12-03T15:09:55.753Z,3.66
2022-12-03T15:12:24.344Z,3.65
2022-12-03T15:14:52.969Z,3.65
2022-12-03T15:17:30.882Z,3.66
2022-12-03T15:19:59.993Z,3.65
2022-12-03T15:22:28.316Z,3.64
2022-12-03T15:24:56.822Z,3.64
2022-12-03T15:27:25.172Z,3.63
2022-12-03T15:29:53.686Z,3.59
2022-12-03T15:32:23.520Z,3.55
2022-12-03T15:34:52.110Z,3.53
2022-12-03T15:37:20.388Z,3.52
2022-12-03T15:39:49.147Z,3.50
2022-12-03T15:42:17.585Z,3.48
2022-12-03T15:44:45.864Z,3.47
2022-12-03T15:47:14.320Z,3.46
2022-12-03T15:49:44.060Z,3.46
2022-12-03T15:52:12.342Z,3.45
2022-12-03T15:54:40.751Z,3.44
2022-12-03T15:57:09.137Z,3.42
2022-12-03T15:59:37.424Z,3.39
2022-12-03T16:02:05.921Z,3.37
2022-12-03T16:04:34.357Z,3.34
2022-12-03T16:07:19.270Z,3.34
2022-12-03T16:09:47.642Z,3.36
2022-12-03T16:12:15.956Z,3.37
2022-12-03T16:14:44.308Z,3.36
2022-12-03T16:17:12.703Z,3.31
2022-12-03T16:19:41.022Z,3.31
2022-12-03T16:22:09.352Z,3.31
2022-12-03T16:24:39.118Z,3.32
2022-12-03T16:27:07.969Z,3.29
2022-12-03T16:29:36.400Z,3.28
2022-12-03T16:32:04.778Z,3.26
2022-12-03T16:34:33.112Z,3.25
2022-12-03T16:37:01.455Z,3.24
2022-12-03T16:39:29.792Z,3.24
2022-12-03T16:41:59.501Z,3.24
2022-12-03T16:44:53.843Z,3.25
2022-12-03T16:47:23.248Z,3.25
2022-12-03T16:49:51.952Z,3.26
2022-12-03T16:52:20.549Z,3.27
2022-12-03T16:54:48.965Z,3.28
2022-12-03T16:57:18.671Z,3.28
2022-12-03T16:59:46.959Z,3.30
2022-12-03T17:02:15.589Z,3.29
2022-12-03T17:04:44.047Z,3.28
2022-12-03T17:07:12.439Z,3.27
2022-12-03T17:09:40.746Z,3.26
2022-12-03T17:12:09.355Z,3.27
2022-12-03T17:14:39.153Z,3.26
2022-12-03T17:17:07.459Z,3.27
2022-12-03T17:19:36.020Z,3.28
2022-12-03T17:22:06.063Z,3.30
2022-12-03T17:24:34.759Z,3.31
2022-12-03T17:27:05.963Z,3.31
2022-12-03T17:29:34.379Z,3.31
2022-12-03T17:32:04.171Z,3.31
2022-12-03T17:34:32.633Z,3.33
2022-12-03T17:37:01.013Z,3.33
2022-12-03T17:39:30.174Z,3.34
2022-12-03T17:41:58.531Z,3.35
2022-12-03T17:44:26.876Z,3.34
2022-12-03T17:46:55.305Z,3.35
2022-12-03T17:49:29.996Z,3.37
2022-12-03T17:52:00.049Z,3.35
2022-12-03T17:54:48.989Z,3.34
2022-12-03T17:57:16.831Z,3.34
2022-12-03T17:59:45.204Z,3.35
2022-12-03T18:02:13.918Z,3.37
2022-12-03T18:04:43.769Z,3.34
2022-12-03T18:07:12.407Z,3.34
2022-12-03T18:09:40.726Z,3.33
2022-12-03T18:12:09.156Z,3.33
2022-12-03T18:14:37.488Z,3.34
2022-12-03T18:17:05.946Z,3.31
2022-12-03T18:19:34.329Z,3.31
2022-12-03T18:22:04.105Z,3.31
2022-12-03T18:24:32.464Z,3.33
2022-12-03T18:27:00.780Z,3.32
2022-12-03T18:29:29.129Z,3.30
2022-12-03T18:31:57.401Z,3.28
2022-12-03T18:34:25.896Z,3.28
2022-12-03T18:36:54.304Z,3.28
2022-12-03T18:39:28.624Z,3.29
2022-12-03T18:41:57.087Z,3.29
2022-12-03T18:44:25.990Z,3.31
2022-12-03T18:46:54.916Z,3.30
2022-12-03T18:49:23.722Z,3.31
2022-12-03T18:51:57.524Z,3.31
2022-12-03T18:54:29.195Z,3.33
2022-12-03T18:56:57.665Z,3.33
2022-12-03T18:59:26.091Z,3.33
2022-12-03T19:01:54.498Z,3.33
2022-12-03T19:04:23.044Z,3.31
2022-12-03T19:06:51.469Z,3.33
2022-12-03T19:09:20.063Z,3.30
2022-12-03T19:11:49.855Z,3.29
2022-12-03T19:14:18.219Z,3.30
2022-12-03T19:16:46.774Z,3.31
2022-12-03T19:19:15.183Z,3.32
2022-12-03T19:21:43.556Z,3.31
2022-12-03T19:24:27.263Z,3.33
2022-12-03T19:26:57.063Z,3.33
2022-12-03T19:29:25.707Z,3.34
2022-12-03T19:31:54.212Z,3.37
2022-12-03T19:34:22.690Z,3.38
2022-12-03T19:36:51.052Z,3.38
2022-12-03T19:39:19.762Z,3.37
2022-12-03T19:41:48.124Z,3.37
2022-12-03T19:44:19.372Z,3.34
2022-12-03T19:46:50.284Z,3.32
2022-12-03T19:49:21.003Z,3.32
2022-12-03T19:51:49.667Z,3.31
2022-12-03T19:54:19.199Z,3.32
2022-12-03T19:56:47.567Z,3.33
2022-12-03T19:59:17.264Z,3.32
2022-12-03T20:01:45.868Z,3.31
2022-12-03T20:04:14.378Z,3.33
2022-12-03T20:06:42.749Z,3.34
2022-12-03T20:09:16.584Z,3.35
2022-12-03T20:11:45.924Z,3.37
2022-12-03T20:14:17.610Z,3.37
2022-12-03T20:16:46.588Z,3.36
2022-12-03T20:19:17.970Z,3.39
2022-12-03T20:21:46.666Z,3.39
2022-12-03T20:24:17.101Z,3.40
2022-12-03T20:26:45.553Z,3.38
2022-12-03T20:29:14.036Z,3.38
2022-12-03T20:31:43.872Z,3.37
2022-12-03T20:34:12.696Z,3.37
2022-12-03T20:36:41.059Z,3.36
2022-12-03T20:39:09.472Z,3.37
2022-12-03T20:41:39.693Z,3.37
2022-12-03T20:44:08.383Z,3.39
2022-12-03T20:46:36.864Z,3.40
2022-12-03T20:49:06.856Z,3.40
2022-12-03T20:51:35.540Z,3.38
2022-12-03T20:54:04.505Z,3.36
2022-12-03T20:56:35.775Z,3.35
2022-12-03T20:59:06.424Z,3.37
2022-12-03T21:01:36.183Z,3.35
2022-12-03T21:04:07.384Z,3.37
2022-12-03T21:06:37.864Z,3.38
2022-12-03T21:09:07.703Z,3.37
2022-12-03T21:11:39.036Z,3.34
2022-12-03T21:14:07.349Z,3.37
2022-12-03T21:17:07.229Z,3.37
2022-12-03T21:19:29.152Z,3.39
2022-12-03T21:21:57.567Z,3.38
2022-12-03T21:24:25.951Z,3.37
2022-12-03T21:26:54.361Z,3.38
2022-12-03T21:29:23.517Z,3.38
2022-12-03T21:31:51.827Z,3.36
2022-12-03T21:34:20.396Z,3.38
2022-12-03T21:36:50.210Z,3.38
2022-12-03T21:39:19.338Z,3.39
2022-12-03T21:42:18.790Z,3.39
2022-12-03T21:44:36.060Z,3.40
2022-12-03T21:47:09.357Z,3.41
2022-12-03T21:49:42.499Z,3.43
2022-12-03T21:52:12.215Z,3.43
2022-12-03T21:54:40.488Z,3.43
2022-12-03T21:57:08.946Z,3.42
2022-12-03T21:59:37.544Z,3.44
2022-12-03T22:02:05.983Z,3.44
2022-12-03T22:04:34.552Z,3.45
2022-12-03T22:07:03.305Z,3.44
2022-12-03T22:09:33.999Z,3.42
2022-12-03T22:12:02.420Z,3.41
2022-12-03T22:14:31.147Z,3.38
2022-12-03T22:16:59.492Z,3.37
2022-12-03T22:19:28.229Z,3.37
2022-12-03T22:21:56.643Z,3.35
2022-12-03T22:24:25.010Z,3.37
2022-12-03T22:26:54.993Z,3.38
2022-12-03T22:29:23.607Z,3.34
2022-12-03T22:31:52.003Z,3.34
2022-12-03T22:34:20.305Z,3.34
2022-12-03T22:36:48.750Z,3.37
2022-12-03T22:39:17.125Z,3.37
2022-12-03T22:41:45.782Z,3.35
2022-12-03T22:44:15.553Z,3.34
2022-12-03T22:46:43.955Z,3.30
2022-12-03T22:49:14.011Z,3.28
2022-12-03T22:51:45.790Z,3.25
2022-12-03T22:54:18.153Z,3.23
2022-12-03T22:56:49.202Z,3.24
2022-12-03T22:59:18.940Z,3.24
2022-12-03T23:01:47.416Z,3.25
2022-12-03T23:04:15.818Z,3.26
2022-12-03T23:06:44.562Z,3.25
2022-12-03T23:09:12.903Z,3.25
2022-12-03T23:11:41.456Z,3.26
2022-12-03T23:14:09.812Z,3.27
2022-12-03T23:16:55.345Z,3.27
2022-12-03T23:19:26.472Z,3.27
2022-12-03T23:21:54.827Z,3.26
2022-12-03T23:24:23.109Z,3.26
2022-12-03T23:26:51.434Z,3.28
2022-12-03T23:29:19.767Z,3.29
2022-12-03T23:31:49.549Z,3.28
2022-12-03T23:34:17.994Z,3.28
2022-12-03T23:36:46.368Z,3.29
2022-12-03T23:39:14.708Z,3.29
2022-12-03T23:41:42.993Z,3.30
2022-12-03T23:44:11.347Z,3.30
2022-12-03T23:46:40.560Z,3.28
2022-12-03T23:49:10.455Z,3.28
2022-12-03T23:51:39.425Z,3.28
2022-12-03T23:54:07.736Z,3.29
2022-12-03T23:56:36.048Z,3.30
2022-12-03T23:59:04.610Z,3.30
